PWSweather.com
Personal Weather Stations
Station Observations
VPOKROGLO
Kal Nad Kanalom, PrimorskaSI

Kal Nad KanalomPrimorskaSI

Lat: 46.072, Lon: 13.734

Elevation: 2526

Station Type: WS-2355

http://www.okroglovreme.com

High Low Average
Temperature 52.0°F11.1°F 38.5°F3.6°F 42.2°F5.7°F
Dew Point 34.9°F1.6°F 20.0°F-6.7°F 26.2°F-3.2°F
Winds 11.3 mph S18.2 mph S Calm Calm 3.8 mph 6.1 mph
Wind Gusts 16.8 mph27.0 mph -- 7.2 mph11.6 mph
Humidity 84% 36% 55%
Pressure 30.16 in1021.30 in 29.99 in1015.60 in -
Precipitation 0.00 in0.00 in - -
Hour Temp Dew Point Humidity Winds Wind Gusts Pressure Precip Precip Rate Daily Precip Total
12:00 AM 41.0°F5.0°C 21.8°F-5.7°C 46% 1.1 mph SSW1.8 kmh SSW 2.7 mph4.3 kmh 30.15 in1021.0 mb 0.00 in0.0 mm 0.00 in0.0 mm 0.00 in0.0 mm
12:15 AM 40.8°F4.9°C 23.1°F-4.9°C 49% 1.4 mph SSW2.3 kmh SSW 2.9 mph4.7 kmh 30.16 in1021.3 mb 0.00 in0.0 mm 0.00 in0.0 mm 0.00 in0.0 mm
12:30 AM 40.8°F4.9°C 24.1°F-4.4°C 51% 2.0 mph SSW3.2 kmh SSW 3.8 mph6.1 kmh 30.16 in1021.3 mb 0.00 in0.0 mm 0.00 in0.0 mm 0.00 in0.0 mm
12:45 AM 40.8°F4.9°C 24.5°F-4.2°C 52% 1.4 mph SSW2.3 kmh SSW 3.1 mph5.0 kmh 30.15 in1021.0 mb 0.00 in0.0 mm 0.00 in0.0 mm 0.00 in0.0 mm
01:00 AM 41.2°F5.1°C 23.9°F-4.5°C 50% 2.6 mph SSW4.2 kmh SSW 4.7 mph7.6 kmh 30.15 in1021.0 mb 0.00 in0.0 mm 0.00 in0.0 mm 0.00 in0.0 mm
01:15 AM 41.4°F5.2°C 23.1°F-4.9°C 48% 2.5 mph SSE4.0 kmh SSE 4.9 mph7.9 kmh 30.15 in1021.0 mb 0.00 in0.0 mm 0.00 in0.0 mm 0.00 in0.0 mm
01:30 AM 41.2°F5.1°C 22.5°F-5.3°C 47% 1.6 mph SE2.6 kmh SE 3.6 mph5.8 kmh 30.15 in1021.0 mb 0.00 in0.0 mm 0.00 in0.0 mm 0.00 in0.0 mm
01:45 AM 41.2°F5.1°C 21.9°F-5.6°C 46% 2.4 mph SE3.9 kmh SE 4.5 mph7.2 kmh 30.15 in1021.0 mb 0.00 in0.0 mm 0.00 in0.0 mm 0.00 in0.0 mm
02:00 AM 41.2°F5.1°C 21.9°F-5.6°C 46% 1.2 mph SSE1.9 kmh SSE 5.1 mph8.2 kmh 30.15 in1021.0 mb 0.00 in0.0 mm 0.00 in0.0 mm 0.00 in0.0 mm
02:15 AM 41.0°F5.0°C 21.8°F-5.7°C 46% 0.7 mph SSE1.1 kmh SSE 2.2 mph3.5 kmh 30.14 in1020.7 mb 0.00 in0.0 mm 0.00 in0.0 mm 0.00 in0.0 mm
02:30 AM 40.6°F4.8°C 22.0°F-5.6°C 47% Calm Calm 0.9 mph1.4 kmh 30.14 in1020.7 mb 0.00 in0.0 mm 0.00 in0.0 mm 0.00 in0.0 mm
02:45 AM 40.5°F4.7°C 22.3°F-5.4°C 48% 0.2 mph SSE0.3 kmh SSE 1.6 mph2.6 kmh 30.14 in1020.7 mb 0.00 in0.0 mm 0.00 in0.0 mm 0.00 in0.0 mm
03:00 AM 40.5°F4.7°C 22.3°F-5.4°C 48% 0.9 mph SSE1.4 kmh SSE 2.2 mph3.5 kmh 30.14 in1020.7 mb 0.00 in0.0 mm 0.00 in0.0 mm 0.00 in0.0 mm
03:15 AM 40.3°F4.6°C 22.1°F-5.5°C 48% 0.3 mph SSE0.5 kmh SSE 1.3 mph2.1 kmh 30.13 in1020.3 mb 0.00 in0.0 mm 0.00 in0.0 mm 0.00 in0.0 mm
03:30 AM 40.1°F4.5°C 21.5°F-5.8°C 47% Calm Calm 0.9 mph1.4 kmh 30.14 in1020.7 mb 0.00 in0.0 mm 0.00 in0.0 mm 0.00 in0.0 mm
03:45 AM 39.7°F4.3°C 21.6°F-5.8°C 48% 1.3 mph SSE2.1 kmh SSE 2.0 mph3.2 kmh 30.13 in1020.3 mb 0.00 in0.0 mm 0.00 in0.0 mm 0.00 in0.0 mm
04:00 AM 39.9°F4.4°C 20.8°F-6.2°C 46% 0.9 mph SSE1.4 kmh SSE 1.8 mph2.9 kmh 30.13 in1020.3 mb 0.00 in0.0 mm 0.00 in0.0 mm 0.00 in0.0 mm
04:15 AM 39.7°F4.3°C 20.1°F-6.6°C 45% 0.9 mph SSE1.4 kmh SSE 2.0 mph3.2 kmh 30.13 in1020.3 mb 0.00 in0.0 mm 0.00 in0.0 mm 0.00 in0.0 mm
04:30 AM 39.9°F4.4°C 20.3°F-6.5°C 45% 0.7 mph SSE1.1 kmh SSE 1.8 mph2.9 kmh 30.12 in1020.0 mb 0.00 in0.0 mm 0.00 in0.0 mm 0.00 in0.0 mm
04:45 AM 39.9°F4.4°C 20.8°F-6.2°C 46% Calm Calm -- 30.12 in1020.0 mb 0.00 in0.0 mm 0.00 in0.0 mm 0.00 in0.0 mm
05:00 AM 39.7°F4.3°C 21.1°F-6.1°C 47% 0.1 mph SSE0.2 kmh SSE 1.1 mph1.8 kmh 30.13 in1020.3 mb 0.00 in0.0 mm 0.00 in0.0 mm 0.00 in0.0 mm
05:15 AM 39.9°F4.4°C 20.8°F-6.2°C 46% 0.1 mph SSE0.2 kmh SSE 1.1 mph1.8 kmh 30.12 in1020.0 mb 0.00 in0.0 mm 0.00 in0.0 mm 0.00 in0.0 mm
05:30 AM 40.1°F4.5°C 21.0°F-6.1°C 46% Calm Calm 1.1 mph1.8 kmh 30.12 in1020.0 mb 0.00 in0.0 mm 0.00 in0.0 mm 0.00 in0.0 mm
05:45 AM 40.1°F4.5°C 21.5°F-5.8°C 47% Calm Calm 0.9 mph1.4 kmh 30.12 in1020.0 mb 0.00 in0.0 mm 0.00 in0.0 mm 0.00 in0.0 mm
06:00 AM 40.3°F4.6°C 22.1°F-5.5°C 48% 1.3 mph SE2.1 kmh SE 2.9 mph4.7 kmh 30.12 in1020.0 mb 0.00 in0.0 mm 0.00 in0.0 mm 0.00 in0.0 mm
06:15 AM 40.3°F4.6°C 22.1°F-5.5°C 48% 1.3 mph SSE2.1 kmh SSE 2.5 mph4.0 kmh 30.11 in1019.6 mb 0.00 in0.0 mm 0.00 in0.0 mm 0.00 in0.0 mm
06:30 AM 39.9°F4.4°C 21.8°F-5.7°C 48% 1.6 mph SSE2.6 kmh SSE 2.7 mph4.3 kmh 30.11 in1019.6 mb 0.00 in0.0 mm 0.00 in0.0 mm 0.00 in0.0 mm
06:45 AM 39.9°F4.4°C 21.8°F-5.7°C 48% 0.2 mph SSE0.3 kmh SSE 1.6 mph2.6 kmh 30.11 in1019.6 mb 0.00 in0.0 mm 0.00 in0.0 mm 0.00 in0.0 mm
07:00 AM 39.9°F4.4°C 21.8°F-5.7°C 48% 0.7 mph SSE1.1 kmh SSE 2.5 mph4.0 kmh 30.11 in1019.6 mb 0.00 in0.0 mm 0.00 in0.0 mm 0.00 in0.0 mm
07:15 AM 39.4°F4.1°C 22.3°F-5.4°C 50% Calm Calm 0.7 mph1.1 kmh 30.12 in1020.0 mb 0.00 in0.0 mm 0.00 in0.0 mm 0.00 in0.0 mm
07:30 AM 38.8°F3.8°C 21.8°F-5.7°C 50% 1.7 mph S2.7 kmh S 4.9 mph7.9 kmh 30.12 in1020.0 mb 0.00 in0.0 mm 0.00 in0.0 mm 0.00 in0.0 mm
07:45 AM 38.5°F3.6°C 22.4°F-5.3°C 52% 2.0 mph SSW3.2 kmh SSW 3.1 mph5.0 kmh 30.12 in1020.0 mb 0.00 in0.0 mm 0.00 in0.0 mm 0.00 in0.0 mm
08:00 AM 38.5°F3.6°C 22.8°F-5.1°C 53% 2.3 mph SSW3.7 kmh SSW 6.3 mph10.1 kmh 30.13 in1020.3 mb 0.00 in0.0 mm 0.00 in0.0 mm 0.00 in0.0 mm
08:15 AM 39.6°F4.2°C 23.8°F-4.6°C 53% 3.0 mph SSW4.8 kmh SSW 6.0 mph9.7 kmh 30.12 in1020.0 mb 0.00 in0.0 mm 0.00 in0.0 mm 0.00 in0.0 mm
08:30 AM 40.1°F4.5°C 23.4°F-4.8°C 51% 3.3 mph S5.3 kmh S 5.8 mph9.3 kmh 30.12 in1020.0 mb 0.00 in0.0 mm 0.00 in0.0 mm 0.00 in0.0 mm
08:45 AM 43.9°F6.6°C 26.9°F-2.8°C 51% 2.1 mph S3.4 kmh S 5.8 mph9.3 kmh 30.12 in1020.0 mb 0.00 in0.0 mm 0.00 in0.0 mm 0.00 in0.0 mm
09:00 AM 43.0°F6.1°C 27.0°F-2.8°C 53% 3.4 mph SW5.5 kmh SW 6.7 mph10.8 kmh 30.12 in1020.0 mb 0.00 in0.0 mm 0.00 in0.0 mm 0.00 in0.0 mm
09:15 AM 42.4°F5.8°C 26.0°F-3.3°C 52% 5.0 mph SSW8.0 kmh SSW 8.3 mph13.4 kmh 30.12 in1020.0 mb 0.00 in0.0 mm 0.00 in0.0 mm 0.00 in0.0 mm
09:30 AM 42.1°F5.6°C 27.1°F-2.7°C 55% 3.4 mph SSW5.5 kmh SSW 5.8 mph9.3 kmh 30.12 in1020.0 mb 0.00 in0.0 mm 0.00 in0.0 mm 0.00 in0.0 mm
09:45 AM 45.5°F7.5°C 28.9°F-1.7°C 52% 3.9 mph SW6.3 kmh SW 8.3 mph13.4 kmh 30.12 in1020.0 mb 0.00 in0.0 mm 0.00 in0.0 mm 0.00 in0.0 mm
10:00 AM 42.4°F5.8°C 25.1°F-3.8°C 50% 4.2 mph S6.8 kmh S 7.8 mph12.6 kmh 30.12 in1020.0 mb 0.00 in0.0 mm 0.00 in0.0 mm 0.00 in0.0 mm
10:15 AM 42.3°F5.7°C 25.9°F-3.4°C 52% 5.4 mph S8.7 kmh S 7.8 mph12.6 kmh 30.12 in1020.0 mb 0.00 in0.0 mm 0.00 in0.0 mm 0.00 in0.0 mm
10:30 AM 42.6°F5.9°C 27.6°F-2.4°C 55% 4.7 mph S7.6 kmh S 8.5 mph13.7 kmh 30.12 in1020.0 mb 0.00 in0.0 mm 0.00 in0.0 mm 0.00 in0.0 mm
10:45 AM 44.4°F6.9°C 25.9°F-3.4°C 48% 5.3 mph SSW8.5 kmh SSW 9.6 mph15.4 kmh 30.11 in1019.6 mb 0.00 in0.0 mm 0.00 in0.0 mm 0.00 in0.0 mm
11:00 AM 49.1°F9.5°C 31.7°F-0.2°C 51% 3.7 mph WSW6.0 kmh WSW 10.1 mph16.3 kmh 30.11 in1019.6 mb 0.00 in0.0 mm 0.00 in0.0 mm 0.00 in0.0 mm
11:15 AM 52.0°F11.1°C 31.3°F-0.4°C 45% 3.9 mph SW6.3 kmh SW 10.7 mph17.2 kmh 30.11 in1019.6 mb 0.00 in0.0 mm 0.00 in0.0 mm 0.00 in0.0 mm
11:30 AM 50.9°F10.5°C 29.7°F-1.3°C 44% 7.6 mph SW12.2 kmh SW 15.0 mph24.1 kmh 30.11 in1019.6 mb 0.00 in0.0 mm 0.00 in0.0 mm 0.00 in0.0 mm
11:45 AM 50.9°F10.5°C 27.4°F-2.6°C 40% 7.9 mph SW12.7 kmh SW 15.2 mph24.5 kmh 30.10 in1019.3 mb 0.00 in0.0 mm 0.00 in0.0 mm 0.00 in0.0 mm
12:00 PM 48.7°F9.3°C 27.8°F-2.3°C 44% 8.9 mph SSW14.3 kmh SSW 14.5 mph23.3 kmh 30.10 in1019.3 mb 0.00 in0.0 mm 0.00 in0.0 mm 0.00 in0.0 mm
12:15 PM 51.1°F10.6°C 31.0°F-0.6°C 46% 6.5 mph SW10.5 kmh SW 13.0 mph20.9 kmh 30.09 in1019.0 mb 0.00 in0.0 mm 0.00 in0.0 mm 0.00 in0.0 mm
12:30 PM 48.9°F9.4°C 26.2°F-3.2°C 41% 8.6 mph SSW13.8 kmh SSW 13.6 mph21.9 kmh 30.09 in1019.0 mb 0.00 in0.0 mm 0.00 in0.0 mm 0.00 in0.0 mm
12:45 PM 48.4°F9.1°C 28.5°F-1.9°C 46% 9.1 mph SSW14.6 kmh SSW 13.9 mph22.4 kmh 30.09 in1019.0 mb 0.00 in0.0 mm 0.00 in0.0 mm 0.00 in0.0 mm
01:00 PM 50.2°F10.1°C 29.6°F-1.3°C 45% 7.7 mph SW12.4 kmh SW 12.8 mph20.6 kmh 30.08 in1018.6 mb 0.00 in0.0 mm 0.00 in0.0 mm 0.00 in0.0 mm
01:15 PM 47.7°F8.7°C 23.9°F-4.5°C 39% 10.4 mph S16.7 kmh S 15.2 mph24.5 kmh 30.07 in1018.3 mb 0.00 in0.0 mm 0.00 in0.0 mm 0.00 in0.0 mm
01:30 PM 49.3°F9.6°C 27.1°F-2.7°C 42% 7.9 mph SSW12.7 kmh SSW 14.3 mph23.0 kmh 30.07 in1018.3 mb 0.00 in0.0 mm 0.00 in0.0 mm 0.00 in0.0 mm
01:45 PM 50.5°F10.3°C 25.8°F-3.4°C 38% 9.2 mph SW14.8 kmh SW 14.5 mph23.3 kmh 30.06 in1017.9 mb 0.00 in0.0 mm 0.00 in0.0 mm 0.00 in0.0 mm
02:00 PM 47.5°F8.6°C 24.9°F-3.9°C 41% 10.2 mph S16.4 kmh S 15.7 mph25.3 kmh 30.05 in1017.6 mb 0.00 in0.0 mm 0.00 in0.0 mm 0.00 in0.0 mm
02:15 PM 46.9°F8.3°C 22.6°F-5.2°C 38% 9.4 mph S15.1 kmh S 15.2 mph24.5 kmh 30.05 in1017.6 mb 0.00 in0.0 mm 0.00 in0.0 mm 0.00 in0.0 mm
02:30 PM 47.3°F8.5°C 23.6°F-4.7°C 39% 9.8 mph SSW15.8 kmh SSW 16.8 mph27.0 kmh 30.05 in1017.6 mb 0.00 in0.0 mm 0.00 in0.0 mm 0.00 in0.0 mm
02:45 PM 46.9°F8.3°C 21.3°F-5.9°C 36% 10.1 mph SSW16.3 kmh SSW 16.1 mph25.9 kmh 30.04 in1017.3 mb 0.00 in0.0 mm 0.00 in0.0 mm 0.00 in0.0 mm
03:00 PM 46.9°F8.3°C 22.6°F-5.2°C 38% 9.8 mph SSW15.8 kmh SSW 15.7 mph25.3 kmh 30.04 in1017.3 mb 0.00 in0.0 mm 0.00 in0.0 mm 0.00 in0.0 mm
03:15 PM 45.7°F7.6°C 21.5°F-5.8°C 38% 11.3 mph S18.2 kmh S 15.9 mph25.6 kmh 30.04 in1017.3 mb 0.00 in0.0 mm 0.00 in0.0 mm 0.00 in0.0 mm
03:30 PM 45.0°F7.2°C 20.8°F-6.2°C 38% 10.6 mph S17.1 kmh S 15.7 mph25.3 kmh 30.04 in1017.3 mb 0.00 in0.0 mm 0.00 in0.0 mm 0.00 in0.0 mm
03:45 PM 44.8°F7.1°C 21.9°F-5.6°C 40% 10.9 mph S17.5 kmh S 16.8 mph27.0 kmh 30.04 in1017.3 mb 0.00 in0.0 mm 0.00 in0.0 mm 0.00 in0.0 mm
04:00 PM 43.3°F6.3°C 20.0°F-6.7°C 39% 9.7 mph S15.6 kmh S 15.2 mph24.5 kmh 30.04 in1017.3 mb 0.00 in0.0 mm 0.00 in0.0 mm 0.00 in0.0 mm
04:15 PM 43.9°F6.6°C 21.7°F-5.7°C 41% 9.3 mph S15.0 kmh S 15.0 mph24.1 kmh 30.03 in1016.9 mb 0.00 in0.0 mm 0.00 in0.0 mm 0.00 in0.0 mm
04:30 PM 43.9°F6.6°C 21.7°F-5.7°C 41% 7.7 mph SSW12.4 kmh SSW 13.0 mph20.9 kmh 30.03 in1016.9 mb 0.00 in0.0 mm 0.00 in0.0 mm 0.00 in0.0 mm
04:45 PM 43.5°F6.4°C 23.0°F-5.0°C 44% 7.0 mph SSW11.3 kmh SSW 13.0 mph20.9 kmh 30.03 in1016.9 mb 0.00 in0.0 mm 0.00 in0.0 mm 0.00 in0.0 mm
05:00 PM 43.2°F6.2°C 24.3°F-4.3°C 47% 8.2 mph SSW13.2 kmh SSW 13.2 mph21.2 kmh 30.03 in1016.9 mb 0.00 in0.0 mm 0.00 in0.0 mm 0.00 in0.0 mm
05:15 PM 42.1°F5.6°C 24.8°F-4.0°C 50% 7.6 mph SSW12.2 kmh SSW 12.8 mph20.6 kmh 30.04 in1017.3 mb 0.00 in0.0 mm 0.00 in0.0 mm 0.00 in0.0 mm
05:30 PM 41.4°F5.2°C 26.4°F-3.1°C 55% 5.8 mph SSW9.3 kmh SSW 9.4 mph15.1 kmh 30.03 in1016.9 mb 0.00 in0.0 mm 0.00 in0.0 mm 0.00 in0.0 mm
05:45 PM 40.3°F4.6°C 27.9°F-2.3°C 61% 6.2 mph SSW10.0 kmh SSW 9.6 mph15.4 kmh 30.03 in1016.9 mb 0.00 in0.0 mm 0.00 in0.0 mm 0.00 in0.0 mm
06:00 PM 39.4°F4.1°C 29.0°F-1.7°C 66% 4.7 mph S7.6 kmh S 7.6 mph12.2 kmh 30.03 in1016.9 mb 0.00 in0.0 mm 0.00 in0.0 mm 0.00 in0.0 mm
06:15 PM 39.4°F4.1°C 30.4°F-0.9°C 70% 4.1 mph SW6.6 kmh SW 8.5 mph13.7 kmh 30.03 in1016.9 mb 0.00 in0.0 mm 0.00 in0.0 mm 0.00 in0.0 mm
06:30 PM 39.9°F4.4°C 31.6°F-0.2°C 72% 3.6 mph SSW5.8 kmh SSW 7.2 mph11.6 kmh 30.03 in1016.9 mb 0.00 in0.0 mm 0.00 in0.0 mm 0.00 in0.0 mm
06:45 PM 39.9°F4.4°C 32.3°F0.2°C 74% 4.8 mph SW7.7 kmh SW 8.9 mph14.3 kmh 30.03 in1016.9 mb 0.00 in0.0 mm 0.00 in0.0 mm 0.00 in0.0 mm
07:00 PM 39.9°F4.4°C 33.0°F0.6°C 76% 3.0 mph SSW4.8 kmh SSW 6.3 mph10.1 kmh 30.03 in1016.9 mb 0.00 in0.0 mm 0.00 in0.0 mm 0.00 in0.0 mm
07:15 PM 39.6°F4.2°C 32.0°F0.0°C 74% 1.3 mph SSW2.1 kmh SSW 3.4 mph5.5 kmh 30.02 in1016.6 mb 0.00 in0.0 mm 0.00 in0.0 mm 0.00 in0.0 mm
07:30 PM 39.4°F4.1°C 32.1°F0.1°C 75% 2.1 mph SW3.4 kmh SW 6.5 mph10.5 kmh 30.03 in1016.9 mb 0.00 in0.0 mm 0.00 in0.0 mm 0.00 in0.0 mm
07:45 PM 39.4°F4.1°C 32.8°F0.4°C 77% 3.1 mph SW5.0 kmh SW 8.1 mph13.0 kmh 30.03 in1016.9 mb 0.00 in0.0 mm 0.00 in0.0 mm 0.00 in0.0 mm
08:00 PM 39.4°F4.1°C 32.8°F0.4°C 77% 1.0 mph WSW1.6 kmh WSW 3.1 mph5.0 kmh 30.03 in1016.9 mb 0.00 in0.0 mm 0.00 in0.0 mm 0.00 in0.0 mm
08:15 PM 39.2°F4.0°C 32.9°F0.5°C 78% 2.0 mph WSW3.2 kmh WSW 6.3 mph10.1 kmh 30.03 in1016.9 mb 0.00 in0.0 mm 0.00 in0.0 mm 0.00 in0.0 mm
08:30 PM 39.0°F3.9°C 33.1°F0.6°C 79% 0.3 mph WNW0.5 kmh WNW 1.6 mph2.6 kmh 30.03 in1016.9 mb 0.00 in0.0 mm 0.00 in0.0 mm 0.00 in0.0 mm
08:45 PM 39.0°F3.9°C 33.1°F0.6°C 79% 0.6 mph WNW1.0 kmh WNW 3.4 mph5.5 kmh 30.03 in1016.9 mb 0.00 in0.0 mm 0.00 in0.0 mm 0.00 in0.0 mm
09:00 PM 38.8°F3.8°C 33.5°F0.8°C 81% 0.9 mph W1.4 kmh W 4.7 mph7.6 kmh 30.03 in1016.9 mb 0.00 in0.0 mm 0.00 in0.0 mm 0.00 in0.0 mm
09:15 PM 39.0°F3.9°C 33.7°F0.9°C 81% 1.4 mph SW2.3 kmh SW 3.6 mph5.8 kmh 30.03 in1016.9 mb 0.00 in0.0 mm 0.00 in0.0 mm 0.00 in0.0 mm
09:30 PM 39.6°F4.2°C 34.5°F1.4°C 82% 3.8 mph SW6.1 kmh SW 8.1 mph13.0 kmh 30.03 in1016.9 mb 0.00 in0.0 mm 0.00 in0.0 mm 0.00 in0.0 mm
09:45 PM 39.6°F4.2°C 34.2°F1.2°C 81% 1.9 mph WSW3.1 kmh WSW 4.5 mph7.2 kmh 30.02 in1016.6 mb 0.00 in0.0 mm 0.00 in0.0 mm 0.00 in0.0 mm
10:00 PM 39.4°F4.1°C 34.3°F1.3°C 82% 1.8 mph W2.9 kmh W 4.7 mph7.6 kmh 30.02 in1016.6 mb 0.00 in0.0 mm 0.00 in0.0 mm 0.00 in0.0 mm
10:15 PM 39.0°F3.9°C 34.0°F1.1°C 82% 1.2 mph WNW1.9 kmh WNW 3.6 mph5.8 kmh 30.02 in1016.6 mb 0.00 in0.0 mm 0.00 in0.0 mm 0.00 in0.0 mm
10:30 PM 39.0°F3.9°C 34.0°F1.1°C 82% 0.9 mph W1.4 kmh W 4.7 mph7.6 kmh 30.01 in1016.3 mb 0.00 in0.0 mm 0.00 in0.0 mm 0.00 in0.0 mm
10:45 PM 39.0°F3.9°C 34.3°F1.3°C 83% 2.1 mph W3.4 kmh W 5.1 mph8.2 kmh 30.01 in1016.3 mb 0.00 in0.0 mm 0.00 in0.0 mm 0.00 in0.0 mm
11:00 PM 39.4°F4.1°C 34.6°F1.4°C 83% 3.1 mph WSW5.0 kmh WSW 10.7 mph17.2 kmh 30.00 in1015.9 mb 0.00 in0.0 mm 0.00 in0.0 mm 0.00 in0.0 mm
11:15 PM 39.4°F4.1°C 34.6°F1.4°C 83% 3.2 mph WSW5.1 kmh WSW 6.3 mph10.1 kmh 30.00 in1015.9 mb 0.00 in0.0 mm 0.00 in0.0 mm 0.00 in0.0 mm
11:30 PM 39.4°F4.1°C 34.9°F1.6°C 84% 2.2 mph WSW3.5 kmh WSW 5.6 mph9.0 kmh 29.99 in1015.6 mb 0.00 in0.0 mm 0.00 in0.0 mm 0.00 in0.0 mm
11:45 PM 39.4°F4.1°C 34.9°F1.6°C 84% 2.7 mph SW4.3 kmh SW 5.8 mph9.3 kmh 29.99 in1015.6 mb 0.00 in0.0 mm 0.00 in0.0 mm 0.00 in0.0 mm